sensor_id;sensor_type;location;lat;lon;timestamp;P1;durP1;ratioP1;P2;durP2;ratioP2
40591;SDS011;26301;42.832;23.918;2022-12-18T00:01:31;227.65;;;15.60;;
40591;SDS011;26301;42.832;23.918;2022-12-18T00:03:59;331.85;;;16.83;;
40591;SDS011;26301;42.832;23.918;2022-12-18T00:06:27;180.18;;;15.38;;
40591;SDS011;26301;42.832;23.918;2022-12-18T00:08:54;74.13;;;14.00;;
40591;SDS011;26301;42.832;23.918;2022-12-18T00:11:22;53.72;;;12.45;;
40591;SDS011;26301;42.832;23.918;2022-12-18T00:13:50;467.73;;;21.35;;
40591;SDS011;26301;42.832;23.918;2022-12-18T00:16:20;415.20;;;19.73;;
40591;SDS011;26301;42.832;23.918;2022-12-18T00:18:48;207.02;;;13.27;;
40591;SDS011;26301;42.832;23.918;2022-12-18T00:21:15;178.32;;;12.75;;
40591;SDS011;26301;42.832;23.918;2022-12-18T00:23:41;292.38;;;13.00;;
40591;SDS011;26301;42.832;23.918;2022-12-18T00:26:11;110.05;;;11.55;;
40591;SDS011;26301;42.832;23.918;2022-12-18T00:28:45;134.57;;;12.55;;
40591;SDS011;26301;42.832;23.918;2022-12-18T00:31:12;201.57;;;14.05;;
40591;SDS011;26301;42.832;23.918;2022-12-18T00:33:39;126.65;;;12.23;;
40591;SDS011;26301;42.832;23.918;2022-12-18T00:38:39;117.40;;;11.45;;
40591;SDS011;26301;42.832;23.918;2022-12-18T00:41:06;211.60;;;13.38;;
40591;SDS011;26301;42.832;23.918;2022-12-18T00:43:34;103.43;;;10.65;;
40591;SDS011;26301;42.832;23.918;2022-12-18T00:46:01;55.85;;;9.75;;
40591;SDS011;26301;42.832;23.918;2022-12-18T00:48:26;18.73;;;9.32;;
40591;SDS011;26301;42.832;23.918;2022-12-18T00:50:52;98.97;;;10.98;;
40591;SDS011;26301;42.832;23.918;2022-12-18T00:53:17;35.05;;;9.93;;
40591;SDS011;26301;42.832;23.918;2022-12-18T00:55:44;57.90;;;9.68;;
40591;SDS011;26301;42.832;23.918;2022-12-18T00:58:10;17.70;;;7.93;;
40591;SDS011;26301;42.832;23.918;2022-12-18T01:00:37;40.80;;;8.63;;
40591;SDS011;26301;42.832;23.918;2022-12-18T01:03:03;35.20;;;7.80;;
40591;SDS011;26301;42.832;23.918;2022-12-18T01:05:29;32.33;;;7.57;;
40591;SDS011;26301;42.832;23.918;2022-12-18T01:07:55;33.10;;;8.45;;
40591;SDS011;26301;42.832;23.918;2022-12-18T01:10:22;36.42;;;7.78;;
40591;SDS011;26301;42.832;23.918;2022-12-18T01:12:49;15.20;;;8.68;;
40591;SDS011;26301;42.832;23.918;2022-12-18T01:15:16;21.17;;;7.88;;
40591;SDS011;26301;42.832;23.918;2022-12-18T01:17:42;31.67;;;8.48;;
40591;SDS011;26301;42.832;23.918;2022-12-18T01:20:08;18.13;;;8.05;;
40591;SDS011;26301;42.832;23.918;2022-12-18T01:22:36;24.08;;;7.40;;
40591;SDS011;26301;42.832;23.918;2022-12-18T01:25:02;15.60;;;6.22;;
40591;SDS011;26301;42.832;23.918;2022-12-18T01:27:29;16.27;;;7.18;;
40591;SDS011;26301;42.832;23.918;2022-12-18T01:29:55;11.75;;;6.60;;
40591;SDS011;26301;42.832;23.918;2022-12-18T01:32:21;49.63;;;8.30;;
40591;SDS011;26301;42.832;23.918;2022-12-18T01:34:47;90.22;;;8.32;;
40591;SDS011;26301;42.832;23.918;2022-12-18T01:37:13;120.47;;;10.30;;
40591;SDS011;26301;42.832;23.918;2022-12-18T01:39:38;238.75;;;11.85;;
40591;SDS011;26301;42.832;23.918;2022-12-18T01:42:05;341.02;;;13.80;;
40591;SDS011;26301;42.832;23.918;2022-12-18T01:49:51;460.08;;;16.98;;
40591;SDS011;26301;42.832;23.918;2022-12-18T01:52:18;545.28;;;18.88;;
40591;SDS011;26301;42.832;23.918;2022-12-18T01:54:45;488.38;;;17.60;;
40591;SDS011;26301;42.832;23.918;2022-12-18T01:57:13;373.85;;;15.50;;
40591;SDS011;26301;42.832;23.918;2022-12-18T01:59:38;414.75;;;15.27;;
40591;SDS011;26301;42.832;23.918;2022-12-18T02:02:06;464.17;;;16.42;;
40591;SDS011;26301;42.832;23.918;2022-12-18T02:04:33;528.45;;;18.70;;
40591;SDS011;26301;42.832;23.918;2022-12-18T02:07:13;162.55;;;9.95;;
40591;SDS011;26301;42.832;23.918;2022-12-18T02:09:51;386.95;;;15.05;;
40591;SDS011;26301;42.832;23.918;2022-12-18T02:12:20;499.63;;;14.85;;
40591;SDS011;26301;42.832;23.918;2022-12-18T02:17:54;409.10;;;14.82;;
40591;SDS011;26301;42.832;23.918;2022-12-18T02:20:26;327.10;;;9.88;;
40591;SDS011;26301;42.832;23.918;2022-12-18T02:28:53;161.93;;;8.35;;
40591;SDS011;26301;42.832;23.918;2022-12-18T02:31:23;321.73;;;12.80;;
40591;SDS011;26301;42.832;23.918;2022-12-18T02:33:52;334.70;;;12.77;;
40591;SDS011;26301;42.832;23.918;2022-12-18T02:36:21;210.60;;;9.07;;
40591;SDS011;26301;42.832;23.918;2022-12-18T02:38:48;219.23;;;9.68;;
40591;SDS011;26301;42.832;23.918;2022-12-18T02:41:16;131.23;;;7.75;;
40591;SDS011;26301;42.832;23.918;2022-12-18T02:43:49;54.63;;;6.75;;
40591;SDS011;26301;42.832;23.918;2022-12-18T02:46:35;253.27;;;11.60;;
40591;SDS011;26301;42.832;23.918;2022-12-18T02:49:22;325.48;;;13.20;;
40591;SDS011;26301;42.832;23.918;2022-12-18T02:57:56;294.45;;;11.05;;
40591;SDS011;26301;42.832;23.918;2022-12-18T03:00:30;178.48;;;8.70;;
40591;SDS011;26301;42.832;23.918;2022-12-18T03:06:30;269.15;;;10.02;;
40591;SDS011;26301;42.832;23.918;2022-12-18T03:08:59;197.32;;;9.45;;
40591;SDS011;26301;42.832;23.918;2022-12-18T03:14:17;281.13;;;10.95;;
40591;SDS011;26301;42.832;23.918;2022-12-18T03:16:46;287.25;;;10.65;;
40591;SDS011;26301;42.832;23.918;2022-12-18T03:19:18;123.53;;;7.47;;
40591;SDS011;26301;42.832;23.918;2022-12-18T03:21:51;258.33;;;10.75;;
40591;SDS011;26301;42.832;23.918;2022-12-18T03:24:20;107.75;;;7.03;;
40591;SDS011;26301;42.832;23.918;2022-12-18T03:26:50;83.63;;;6.50;;
40591;SDS011;26301;42.832;23.918;2022-12-18T03:29:24;117.93;;;7.75;;
40591;SDS011;26301;42.832;23.918;2022-12-18T03:31:59;79.55;;;6.43;;
40591;SDS011;26301;42.832;23.918;2022-12-18T03:34:32;79.75;;;5.88;;
40591;SDS011;26301;42.832;23.918;2022-12-18T03:37:02;9.25;;;6.10;;
40591;SDS011;26301;42.832;23.918;2022-12-18T03:39:28;7.50;;;5.32;;
40591;SDS011;26301;42.832;23.918;2022-12-18T03:44:57;6.45;;;4.35;;
40591;SDS011;26301;42.832;23.918;2022-12-18T03:50:17;6.93;;;4.40;;
40591;SDS011;26301;42.832;23.918;2022-12-18T03:55:26;5.80;;;3.80;;
40591;SDS011;26301;42.832;23.918;2022-12-18T03:57:55;10.27;;;4.50;;
40591;SDS011;26301;42.832;23.918;2022-12-18T04:00:22;6.72;;;4.18;;
40591;SDS011;26301;42.832;23.918;2022-12-18T04:02:52;4.07;;;2.80;;
40591;SDS011;26301;42.832;23.918;2022-12-18T04:05:20;3.53;;;2.90;;
40591;SDS011;26301;42.832;23.918;2022-12-18T04:07:48;4.00;;;2.85;;
40591;SDS011;26301;42.832;23.918;2022-12-18T04:10:17;5.20;;;3.85;;
40591;SDS011;26301;42.832;23.918;2022-12-18T04:12:44;5.45;;;3.85;;
40591;SDS011;26301;42.832;23.918;2022-12-18T04:15:10;4.95;;;3.85;;
40591;SDS011;26301;42.832;23.918;2022-12-18T04:17:36;3.85;;;2.65;;
40591;SDS011;26301;42.832;23.918;2022-12-18T04:20:03;11.77;;;3.78;;
40591;SDS011;26301;42.832;23.918;2022-12-18T04:22:29;111.97;;;6.57;;
40591;SDS011;26301;42.832;23.918;2022-12-18T04:24:55;89.90;;;6.93;;
40591;SDS011;26301;42.832;23.918;2022-12-18T04:27:20;41.38;;;5.43;;
40591;SDS011;26301;42.832;23.918;2022-12-18T04:29:46;23.10;;;7.22;;
40591;SDS011;26301;42.832;23.918;2022-12-18T04:32:12;9.20;;;4.53;;
40591;SDS011;26301;42.832;23.918;2022-12-18T04:34:37;5.32;;;3.45;;
40591;SDS011;26301;42.832;23.918;2022-12-18T04:37:03;4.68;;;3.35;;
40591;SDS011;26301;42.832;23.918;2022-12-18T04:39:29;5.55;;;3.72;;
40591;SDS011;26301;42.832;23.918;2022-12-18T04:41:54;7.22;;;3.92;;
40591;SDS011;26301;42.832;23.918;2022-12-18T04:44:20;5.60;;;3.83;;
40591;SDS011;26301;42.832;23.918;2022-12-18T04:46:46;7.95;;;4.80;;
40591;SDS011;26301;42.832;23.918;2022-12-18T04:49:11;9.32;;;4.47;;
40591;SDS011;26301;42.832;23.918;2022-12-18T04:51:37;8.02;;;4.32;;
40591;SDS011;26301;42.832;23.918;2022-12-18T04:54:03;7.32;;;3.55;;
40591;SDS011;26301;42.832;23.918;2022-12-18T04:56:30;110.70;;;6.60;;
40591;SDS011;26301;42.832;23.918;2022-12-18T04:58:56;106.28;;;6.40;;
40591;SDS011;26301;42.832;23.918;2022-12-18T05:01:22;42.30;;;6.18;;
40591;SDS011;26301;42.832;23.918;2022-12-18T05:03:48;57.33;;;6.38;;
40591;SDS011;26301;42.832;23.918;2022-12-18T05:06:16;115.50;;;6.43;;
40591;SDS011;26301;42.832;23.918;2022-12-18T05:08:42;87.05;;;5.05;;
40591;SDS011;26301;42.832;23.918;2022-12-18T05:11:09;90.72;;;7.93;;
40591;SDS011;26301;42.832;23.918;2022-12-18T05:13:39;181.63;;;8.30;;
40591;SDS011;26301;42.832;23.918;2022-12-18T05:16:08;161.70;;;7.95;;
40591;SDS011;26301;42.832;23.918;2022-12-18T05:18:33;107.45;;;6.13;;
40591;SDS011;26301;42.832;23.918;2022-12-18T05:21:03;181.82;;;8.18;;
40591;SDS011;26301;42.832;23.918;2022-12-18T05:23:29;19.27;;;4.03;;
40591;SDS011;26301;42.832;23.918;2022-12-18T05:25:56;159.90;;;8.77;;
40591;SDS011;26301;42.832;23.918;2022-12-18T05:28:27;101.43;;;7.43;;
40591;SDS011;26301;42.832;23.918;2022-12-18T05:30:55;216.48;;;8.23;;
40591;SDS011;26301;42.832;23.918;2022-12-18T05:33:23;232.90;;;9.13;;
40591;SDS011;26301;42.832;23.918;2022-12-18T05:35:53;160.05;;;7.43;;
40591;SDS011;26301;42.832;23.918;2022-12-18T05:38:21;260.13;;;10.00;;
40591;SDS011;26301;42.832;23.918;2022-12-18T05:40:48;103.43;;;6.50;;
40591;SDS011;26301;42.832;23.918;2022-12-18T05:43:15;157.70;;;8.07;;
40591;SDS011;26301;42.832;23.918;2022-12-18T05:45:40;33.90;;;4.55;;
40591;SDS011;26301;42.832;23.918;2022-12-18T05:48:06;21.10;;;3.70;;
40591;SDS011;26301;42.832;23.918;2022-12-18T05:50:36;13.73;;;4.25;;
40591;SDS011;26301;42.832;23.918;2022-12-18T05:53:03;13.05;;;5.88;;
40591;SDS011;26301;42.832;23.918;2022-12-18T05:55:36;10.13;;;7.18;;
40591;SDS011;26301;42.832;23.918;2022-12-18T05:58:04;7.03;;;4.65;;
40591;SDS011;26301;42.832;23.918;2022-12-18T06:00:31;8.32;;;5.70;;
40591;SDS011;26301;42.832;23.918;2022-12-18T06:02:58;8.00;;;5.80;;
40591;SDS011;26301;42.832;23.918;2022-12-18T06:05:24;4.47;;;3.28;;
40591;SDS011;26301;42.832;23.918;2022-12-18T06:07:50;4.25;;;2.70;;
40591;SDS011;26301;42.832;23.918;2022-12-18T06:10:15;3.78;;;2.60;;
40591;SDS011;26301;42.832;23.918;2022-12-18T06:12:41;7.93;;;3.40;;
40591;SDS011;26301;42.832;23.918;2022-12-18T06:15:07;11.15;;;4.70;;
40591;SDS011;26301;42.832;23.918;2022-12-18T06:17:33;11.38;;;8.65;;
40591;SDS011;26301;42.832;23.918;2022-12-18T06:19:59;11.05;;;4.40;;
40591;SDS011;26301;42.832;23.918;2022-12-18T06:22:25;11.18;;;3.50;;
40591;SDS011;26301;42.832;23.918;2022-12-18T06:24:51;38.72;;;5.38;;
40591;SDS011;26301;42.832;23.918;2022-12-18T06:27:17;123.38;;;6.15;;
40591;SDS011;26301;42.832;23.918;2022-12-18T06:29:42;137.35;;;6.63;;
40591;SDS011;26301;42.832;23.918;2022-12-18T06:32:08;69.38;;;8.75;;
40591;SDS011;26301;42.832;23.918;2022-12-18T06:34:34;27.08;;;12.00;;
40591;SDS011;26301;42.832;23.918;2022-12-18T06:37:02;5.97;;;4.25;;
40591;SDS011;26301;42.832;23.918;2022-12-18T06:39:28;6.85;;;4.70;;
40591;SDS011;26301;42.832;23.918;2022-12-18T06:41:54;9.25;;;5.72;;
40591;SDS011;26301;42.832;23.918;2022-12-18T06:44:19;5.40;;;3.80;;
40591;SDS011;26301;42.832;23.918;2022-12-18T06:46:45;4.82;;;3.35;;
40591;SDS011;26301;42.832;23.918;2022-12-18T06:49:11;5.13;;;3.85;;
40591;SDS011;26301;42.832;23.918;2022-12-18T06:51:37;4.22;;;2.95;;
40591;SDS011;26301;42.832;23.918;2022-12-18T06:54:03;6.50;;;3.63;;
40591;SDS011;26301;42.832;23.918;2022-12-18T06:56:29;5.70;;;3.63;;
40591;SDS011;26301;42.832;23.918;2022-12-18T07:02:31;7.32;;;3.55;;
40591;SDS011;26301;42.832;23.918;2022-12-18T07:05:40;6.18;;;3.95;;
40591;SDS011;26301;42.832;23.918;2022-12-18T07:08:07;6.07;;;3.60;;
40591;SDS011;26301;42.832;23.918;2022-12-18T07:10:33;5.30;;;3.65;;
40591;SDS011;26301;42.832;23.918;2022-12-18T07:13:05;5.68;;;3.95;;
40591;SDS011;26301;42.832;23.918;2022-12-18T07:15:31;4.95;;;3.45;;
40591;SDS011;26301;42.832;23.918;2022-12-18T07:17:56;6.15;;;3.92;;
40591;SDS011;26301;42.832;23.918;2022-12-18T07:20:22;7.30;;;4.65;;
40591;SDS011;26301;42.832;23.918;2022-12-18T07:22:48;7.22;;;4.78;;
40591;SDS011;26301;42.832;23.918;2022-12-18T07:25:13;5.95;;;4.13;;
40591;SDS011;26301;42.832;23.918;2022-12-18T07:27:39;5.75;;;4.25;;
40591;SDS011;26301;42.832;23.918;2022-12-18T07:30:08;6.97;;;4.82;;
40591;SDS011;26301;42.832;23.918;2022-12-18T07:32:34;7.38;;;4.30;;
40591;SDS011;26301;42.832;23.918;2022-12-18T07:35:03;7.40;;;4.30;;
40591;SDS011;26301;42.832;23.918;2022-12-18T07:37:32;9.73;;;4.35;;
40591;SDS011;26301;42.832;23.918;2022-12-18T07:39:58;9.15;;;5.07;;
40591;SDS011;26301;42.832;23.918;2022-12-18T07:42:23;7.97;;;4.53;;
40591;SDS011;26301;42.832;23.918;2022-12-18T07:44:58;7.70;;;4.32;;
40591;SDS011;26301;42.832;23.918;2022-12-18T07:47:25;6.75;;;4.95;;
40591;SDS011;26301;42.832;23.918;2022-12-18T07:49:51;8.05;;;4.72;;
40591;SDS011;26301;42.832;23.918;2022-12-18T07:52:17;6.22;;;4.60;;
40591;SDS011;26301;42.832;23.918;2022-12-18T07:54:43;7.32;;;4.55;;
40591;SDS011;26301;42.832;23.918;2022-12-18T07:57:10;6.93;;;4.78;;
40591;SDS011;26301;42.832;23.918;2022-12-18T07:59:36;6.10;;;4.20;;
40591;SDS011;26301;42.832;23.918;2022-12-18T08:02:02;6.25;;;4.18;;
40591;SDS011;26301;42.832;23.918;2022-12-18T08:04:28;12.32;;;8.45;;
40591;SDS011;26301;42.832;23.918;2022-12-18T08:06:53;5.85;;;3.90;;
40591;SDS011;26301;42.832;23.918;2022-12-18T08:12:07;5.05;;;3.28;;
40591;SDS011;26301;42.832;23.918;2022-12-18T08:14:33;5.13;;;3.08;;
40591;SDS011;26301;42.832;23.918;2022-12-18T08:16:59;4.95;;;3.17;;
40591;SDS011;26301;42.832;23.918;2022-12-18T08:19:24;6.53;;;4.78;;
40591;SDS011;26301;42.832;23.918;2022-12-18T08:21:50;5.60;;;3.60;;
40591;SDS011;26301;42.832;23.918;2022-12-18T08:24:40;5.28;;;3.60;;
40591;SDS011;26301;42.832;23.918;2022-12-18T08:27:06;4.30;;;3.28;;
40591;SDS011;26301;42.832;23.918;2022-12-18T08:29:31;3.05;;;2.53;;
40591;SDS011;26301;42.832;23.918;2022-12-18T08:32:06;4.07;;;2.95;;
40591;SDS011;26301;42.832;23.918;2022-12-18T08:34:35;4.13;;;2.85;;
40591;SDS011;26301;42.832;23.918;2022-12-18T08:37:01;6.03;;;3.72;;
40591;SDS011;26301;42.832;23.918;2022-12-18T08:39:27;6.90;;;3.30;;
40591;SDS011;26301;42.832;23.918;2022-12-18T08:41:52;5.30;;;2.97;;
40591;SDS011;26301;42.832;23.918;2022-12-18T08:44:36;3.50;;;2.33;;
40591;SDS011;26301;42.832;23.918;2022-12-18T08:47:02;4.15;;;2.70;;
40591;SDS011;26301;42.832;23.918;2022-12-18T08:49:28;3.63;;;2.45;;
40591;SDS011;26301;42.832;23.918;2022-12-18T08:51:55;5.55;;;2.70;;
40591;SDS011;26301;42.832;23.918;2022-12-18T08:54:22;4.10;;;2.45;;
40591;SDS011;26301;42.832;23.918;2022-12-18T08:56:48;4.10;;;2.53;;
40591;SDS011;26301;42.832;23.918;2022-12-18T08:59:17;3.95;;;2.70;;
40591;SDS011;26301;42.832;23.918;2022-12-18T09:01:44;5.35;;;2.78;;
40591;SDS011;26301;42.832;23.918;2022-12-18T09:04:10;3.80;;;2.70;;
40591;SDS011;26301;42.832;23.918;2022-12-18T09:06:37;3.83;;;2.50;;
40591;SDS011;26301;42.832;23.918;2022-12-18T09:09:04;4.10;;;2.75;;
40591;SDS011;26301;42.832;23.918;2022-12-18T09:11:30;3.80;;;2.35;;
40591;SDS011;26301;42.832;23.918;2022-12-18T09:13:57;3.92;;;2.67;;
40591;SDS011;26301;42.832;23.918;2022-12-18T09:16:29;4.07;;;2.60;;
40591;SDS011;26301;42.832;23.918;2022-12-18T09:18:56;3.88;;;2.33;;
40591;SDS011;26301;42.832;23.918;2022-12-18T09:21:26;3.92;;;2.72;;
40591;SDS011;26301;42.832;23.918;2022-12-18T09:23:54;3.72;;;2.78;;
40591;SDS011;26301;42.832;23.918;2022-12-18T09:26:21;4.80;;;2.30;;
40591;SDS011;26301;42.832;23.918;2022-12-18T09:28:48;3.25;;;2.13;;
40591;SDS011;26301;42.832;23.918;2022-12-18T09:31:14;5.75;;;2.90;;
40591;SDS011;26301;42.832;23.918;2022-12-18T09:33:40;4.25;;;2.53;;
40591;SDS011;26301;42.832;23.918;2022-12-18T09:36:07;2.92;;;2.30;;
40591;SDS011;26301;42.832;23.918;2022-12-18T09:38:35;4.03;;;2.40;;
40591;SDS011;26301;42.832;23.918;2022-12-18T09:41:30;4.35;;;2.70;;
40591;SDS011;26301;42.832;23.918;2022-12-18T09:49:34;3.38;;;2.15;;
40591;SDS011;26301;42.832;23.918;2022-12-18T09:52:11;5.30;;;2.45;;
40591;SDS011;26301;42.832;23.918;2022-12-18T09:57:42;3.70;;;2.28;;
40591;SDS011;26301;42.832;23.918;2022-12-18T10:00:19;3.83;;;2.30;;
40591;SDS011;26301;42.832;23.918;2022-12-18T10:02:55;3.05;;;2.17;;
40591;SDS011;26301;42.832;23.918;2022-12-18T10:16:59;5.18;;;3.20;;
40591;SDS011;26301;42.832;23.918;2022-12-18T10:22:01;3.38;;;1.95;;
40591;SDS011;26301;42.832;23.918;2022-12-18T10:24:47;10.40;;;7.78;;
40591;SDS011;26301;42.832;23.918;2022-12-18T10:27:18;3.60;;;2.42;;
40591;SDS011;26301;42.832;23.918;2022-12-18T10:29:48;6.90;;;2.33;;
40591;SDS011;26301;42.832;23.918;2022-12-18T10:32:15;7.07;;;2.50;;
40591;SDS011;26301;42.832;23.918;2022-12-18T10:34:48;5.72;;;3.90;;
40591;SDS011;26301;42.832;23.918;2022-12-18T10:37:19;4.78;;;2.60;;
40591;SDS011;26301;42.832;23.918;2022-12-18T10:40:09;4.38;;;2.78;;
40591;SDS011;26301;42.832;23.918;2022-12-18T10:42:37;3.38;;;2.40;;
40591;SDS011;26301;42.832;23.918;2022-12-18T10:45:21;2.78;;;1.70;;
40591;SDS011;26301;42.832;23.918;2022-12-18T10:47:47;3.40;;;2.20;;
40591;SDS011;26301;42.832;23.918;2022-12-18T10:50:28;6.88;;;3.47;;
40591;SDS011;26301;42.832;23.918;2022-12-18T10:53:01;4.13;;;2.50;;
40591;SDS011;26301;42.832;23.918;2022-12-18T10:55:33;4.30;;;2.67;;
40591;SDS011;26301;42.832;23.918;2022-12-18T11:06:21;4.05;;;2.70;;
40591;SDS011;26301;42.832;23.918;2022-12-18T11:09:02;4.88;;;3.42;;
40591;SDS011;26301;42.832;23.918;2022-12-18T11:11:51;3.78;;;2.40;;
40591;SDS011;26301;42.832;23.918;2022-12-18T11:16:55;4.30;;;2.90;;
40591;SDS011;26301;42.832;23.918;2022-12-18T11:19:30;4.20;;;2.78;;
40591;SDS011;26301;42.832;23.918;2022-12-18T11:22:02;4.35;;;2.53;;
40591;SDS011;26301;42.832;23.918;2022-12-18T11:24:49;4.28;;;2.65;;
40591;SDS011;26301;42.832;23.918;2022-12-18T11:27:19;7.47;;;2.28;;
40591;SDS011;26301;42.832;23.918;2022-12-18T11:29:45;4.78;;;2.35;;
40591;SDS011;26301;42.832;23.918;2022-12-18T11:37:57;6.57;;;3.83;;
40591;SDS011;26301;42.832;23.918;2022-12-18T11:40:35;4.10;;;2.30;;
40591;SDS011;26301;42.832;23.918;2022-12-18T11:43:16;4.25;;;2.63;;
40591;SDS011;26301;42.832;23.918;2022-12-18T11:48:52;5.80;;;4.05;;
40591;SDS011;26301;42.832;23.918;2022-12-18T11:51:28;6.38;;;4.03;;
40591;SDS011;26301;42.832;23.918;2022-12-18T11:54:16;5.93;;;3.55;;
40591;SDS011;26301;42.832;23.918;2022-12-18T11:56:55;5.28;;;3.40;;
40591;SDS011;26301;42.832;23.918;2022-12-18T11:59:53;5.13;;;3.28;;
40591;SDS011;26301;42.832;23.918;2022-12-18T12:08:13;14.00;;;9.07;;
40591;SDS011;26301;42.832;23.918;2022-12-18T12:13:38;5.40;;;3.47;;
40591;SDS011;26301;42.832;23.918;2022-12-18T12:21:21;8.80;;;4.20;;
40591;SDS011;26301;42.832;23.918;2022-12-18T12:39:46;5.15;;;2.95;;
40591;SDS011;26301;42.832;23.918;2022-12-18T12:42:23;6.07;;;3.55;;
40591;SDS011;26301;42.832;23.918;2022-12-18T12:45:39;5.68;;;3.85;;
40591;SDS011;26301;42.832;23.918;2022-12-18T12:48:13;8.05;;;4.97;;
40591;SDS011;26301;42.832;23.918;2022-12-18T12:51:01;6.88;;;3.53;;
40591;SDS011;26301;42.832;23.918;2022-12-18T12:53:34;5.97;;;4.20;;
40591;SDS011;26301;42.832;23.918;2022-12-18T12:56:03;6.25;;;4.15;;
40591;SDS011;26301;42.832;23.918;2022-12-18T13:08:58;20.98;;;9.48;;
40591;SDS011;26301;42.832;23.918;2022-12-18T13:11:47;6.05;;;4.10;;
40591;SDS011;26301;42.832;23.918;2022-12-18T13:14:34;5.13;;;3.45;;
40591;SDS011;26301;42.832;23.918;2022-12-18T13:17:15;5.50;;;3.25;;
40591;SDS011;26301;42.832;23.918;2022-12-18T13:19:51;6.45;;;4.18;;
40591;SDS011;26301;42.832;23.918;2022-12-18T13:22:30;5.82;;;3.80;;
40591;SDS011;26301;42.832;23.918;2022-12-18T13:25:00;6.30;;;4.25;;
40591;SDS011;26301;42.832;23.918;2022-12-18T13:40:56;5.20;;;3.30;;
40591;SDS011;26301;42.832;23.918;2022-12-18T13:43:30;5.68;;;3.55;;
40591;SDS011;26301;42.832;23.918;2022-12-18T13:48:35;23.80;;;14.68;;
40591;SDS011;26301;42.832;23.918;2022-12-18T13:53:39;7.40;;;4.63;;
40591;SDS011;26301;42.832;23.918;2022-12-18T13:56:09;9.32;;;4.93;;
40591;SDS011;26301;42.832;23.918;2022-12-18T13:58:41;7.70;;;4.47;;
40591;SDS011;26301;42.832;23.918;2022-12-18T14:01:20;6.50;;;3.78;;
40591;SDS011;26301;42.832;23.918;2022-12-18T14:03:48;5.53;;;3.55;;
40591;SDS011;26301;42.832;23.918;2022-12-18T14:06:14;5.93;;;3.58;;
40591;SDS011;26301;42.832;23.918;2022-12-18T14:08:41;6.03;;;3.80;;
40591;SDS011;26301;42.832;23.918;2022-12-18T14:11:20;5.00;;;3.20;;
40591;SDS011;26301;42.832;23.918;2022-12-18T14:13:48;4.57;;;3.03;;
40591;SDS011;26301;42.832;23.918;2022-12-18T14:16:15;6.15;;;3.40;;
40591;SDS011;26301;42.832;23.918;2022-12-18T14:21:31;6.38;;;3.67;;
40591;SDS011;26301;42.832;23.918;2022-12-18T14:24:03;6.13;;;3.58;;
40591;SDS011;26301;42.832;23.918;2022-12-18T14:26:31;5.78;;;3.67;;
40591;SDS011;26301;42.832;23.918;2022-12-18T14:28:59;6.18;;;3.83;;
40591;SDS011;26301;42.832;23.918;2022-12-18T14:31:30;6.85;;;4.05;;
40591;SDS011;26301;42.832;23.918;2022-12-18T14:33:56;5.78;;;4.32;;
40591;SDS011;26301;42.832;23.918;2022-12-18T14:36:23;7.10;;;4.47;;
40591;SDS011;26301;42.832;23.918;2022-12-18T14:38:56;7.00;;;4.70;;
40591;SDS011;26301;42.832;23.918;2022-12-18T14:41:23;6.55;;;4.35;;
40591;SDS011;26301;42.832;23.918;2022-12-18T14:43:51;5.65;;;3.70;;
40591;SDS011;26301;42.832;23.918;2022-12-18T14:46:29;6.32;;;3.60;;
40591;SDS011;26301;42.832;23.918;2022-12-18T14:49:03;5.65;;;3.88;;
40591;SDS011;26301;42.832;23.918;2022-12-18T14:51:47;5.82;;;3.58;;
40591;SDS011;26301;42.832;23.918;2022-12-18T14:54:25;4.78;;;3.58;;
40591;SDS011;26301;42.832;23.918;2022-12-18T14:57:02;4.72;;;3.15;;
40591;SDS011;26301;42.832;23.918;2022-12-18T14:59:49;4.68;;;2.97;;
40591;SDS011;26301;42.832;23.918;2022-12-18T15:02:20;6.13;;;3.42;;
40591;SDS011;26301;42.832;23.918;2022-12-18T15:07:24;8.60;;;3.70;;
40591;SDS011;26301;42.832;23.918;2022-12-18T15:12:46;7.03;;;3.95;;
40591;SDS011;26301;42.832;23.918;2022-12-18T15:18:02;7.07;;;3.83;;
40591;SDS011;26301;42.832;23.918;2022-12-18T15:20:30;6.47;;;4.70;;
40591;SDS011;26301;42.832;23.918;2022-12-18T15:22:58;5.85;;;3.85;;
40591;SDS011;26301;42.832;23.918;2022-12-18T15:25:34;4.82;;;3.35;;
40591;SDS011;26301;42.832;23.918;2022-12-18T15:28:02;5.97;;;3.58;;
40591;SDS011;26301;42.832;23.918;2022-12-18T15:30:29;6.53;;;3.90;;
40591;SDS011;26301;42.832;23.918;2022-12-18T15:35:58;6.28;;;4.70;;
40591;SDS011;26301;42.832;23.918;2022-12-18T15:38:25;6.78;;;4.35;;
40591;SDS011;26301;42.832;23.918;2022-12-18T15:40:50;8.15;;;5.30;;
40591;SDS011;26301;42.832;23.918;2022-12-18T15:43:18;7.55;;;4.70;;
40591;SDS011;26301;42.832;23.918;2022-12-18T15:45:58;8.98;;;3.88;;
40591;SDS011;26301;42.832;23.918;2022-12-18T15:48:25;5.55;;;3.58;;
40591;SDS011;26301;42.832;23.918;2022-12-18T15:50:51;5.93;;;3.57;;
40591;SDS011;26301;42.832;23.918;2022-12-18T15:53:20;6.00;;;3.22;;
40591;SDS011;26301;42.832;23.918;2022-12-18T15:55:46;6.70;;;3.53;;
40591;SDS011;26301;42.832;23.918;2022-12-18T15:58:30;7.07;;;3.88;;
40591;SDS011;26301;42.832;23.918;2022-12-18T16:00:56;6.75;;;4.30;;
40591;SDS011;26301;42.832;23.918;2022-12-18T16:03:26;8.70;;;3.60;;
40591;SDS011;26301;42.832;23.918;2022-12-18T16:05:52;5.90;;;3.60;;
40591;SDS011;26301;42.832;23.918;2022-12-18T16:08:18;6.57;;;4.25;;
40591;SDS011;26301;42.832;23.918;2022-12-18T16:10:43;6.97;;;4.10;;
40591;SDS011;26301;42.832;23.918;2022-12-18T16:13:10;6.57;;;4.65;;
40591;SDS011;26301;42.832;23.918;2022-12-18T16:15:40;14.13;;;9.07;;
40591;SDS011;26301;42.832;23.918;2022-12-18T16:18:05;20.65;;;11.02;;
40591;SDS011;26301;42.832;23.918;2022-12-18T16:20:31;22.90;;;11.70;;
40591;SDS011;26301;42.832;23.918;2022-12-18T16:22:56;12.90;;;8.00;;
40591;SDS011;26301;42.832;23.918;2022-12-18T16:25:23;13.95;;;7.85;;
40591;SDS011;26301;42.832;23.918;2022-12-18T16:27:51;12.37;;;8.47;;
40591;SDS011;26301;42.832;23.918;2022-12-18T16:30:21;14.73;;;8.87;;
40591;SDS011;26301;42.832;23.918;2022-12-18T16:32:56;12.80;;;8.23;;
40591;SDS011;26301;42.832;23.918;2022-12-18T16:35:24;11.07;;;7.28;;
40591;SDS011;26301;42.832;23.918;2022-12-18T16:37:50;14.10;;;8.50;;
40591;SDS011;26301;42.832;23.918;2022-12-18T16:40:17;12.37;;;7.97;;
40591;SDS011;26301;42.832;23.918;2022-12-18T16:42:44;10.33;;;6.67;;
40591;SDS011;26301;42.832;23.918;2022-12-18T16:45:13;10.37;;;7.03;;
40591;SDS011;26301;42.832;23.918;2022-12-18T16:47:41;18.17;;;9.17;;
40591;SDS011;26301;42.832;23.918;2022-12-18T16:50:06;13.13;;;7.35;;
40591;SDS011;26301;42.832;23.918;2022-12-18T16:52:33;15.17;;;8.73;;
40591;SDS011;26301;42.832;23.918;2022-12-18T16:54:59;22.27;;;13.33;;
40591;SDS011;26301;42.832;23.918;2022-12-18T16:57:25;16.03;;;9.17;;
40591;SDS011;26301;42.832;23.918;2022-12-18T16:59:51;14.33;;;8.70;;
40591;SDS011;26301;42.832;23.918;2022-12-18T17:02:18;10.47;;;6.47;;
40591;SDS011;26301;42.832;23.918;2022-12-18T17:04:46;8.60;;;5.90;;
40591;SDS011;26301;42.832;23.918;2022-12-18T17:07:12;11.03;;;6.47;;
40591;SDS011;26301;42.832;23.918;2022-12-18T17:09:39;10.67;;;6.90;;
40591;SDS011;26301;42.832;23.918;2022-12-18T17:12:05;10.77;;;6.47;;
40591;SDS011;26301;42.832;23.918;2022-12-18T17:14:32;11.30;;;6.37;;
40591;SDS011;26301;42.832;23.918;2022-12-18T17:16:58;11.60;;;6.37;;
40591;SDS011;26301;42.832;23.918;2022-12-18T17:19:24;10.07;;;6.20;;